createdAt,value
2022-10-28T12:16:21.374Z,26.26
2022-10-28T12:17:21.307Z,26.29
2022-10-28T12:18:21.885Z,26.50
2022-10-28T12:19:20.295Z,26.73
2022-10-28T12:20:26.348Z,26.89
2022-10-28T12:21:23.915Z,26.85
2022-10-28T12:22:20.872Z,27.04
2022-10-28T12:23:21.832Z,27.28
2022-10-28T12:24:20.827Z,27.41
2022-10-28T12:25:19.550Z,27.39
2022-10-28T12:26:19.394Z,27.55
2022-10-28T12:27:19.401Z,28.15
2022-10-28T12:28:21.852Z,28.24
2022-10-28T12:29:19.309Z,28.44
2022-10-28T12:30:19.420Z,28.36
2022-10-28T12:31:20.356Z,28.21
2022-10-28T12:32:19.326Z,28.62
2022-10-28T12:33:20.336Z,28.58
2022-10-28T12:34:19.341Z,28.81
2022-10-28T12:35:21.834Z,29.08
2022-10-28T12:36:19.330Z,29.37
2022-10-28T12:37:19.872Z,29.12
2022-10-28T12:38:19.365Z,28.40
2022-10-28T12:39:19.267Z,28.36
2022-10-28T12:40:20.913Z,28.15
2022-10-28T12:41:19.863Z,27.93
2022-10-28T12:42:23.383Z,27.70
2022-10-28T12:43:20.930Z,27.50
2022-10-28T12:44:20.840Z,27.22
2022-10-28T12:45:19.821Z,27.18
2022-10-28T12:46:19.925Z,27.18
2022-10-28T12:47:32.737Z,27.04
2022-10-28T13:12:34.791Z,25.51
2022-10-28T13:13:34.812Z,25.47
2022-10-28T13:14:34.752Z,25.72
2022-10-28T13:15:34.768Z,25.79
2022-10-28T13:16:34.739Z,25.91
2022-10-28T13:17:34.745Z,25.70
2022-10-28T13:34:04.704Z,25.52
2022-10-28T13:35:04.684Z,25.65
2022-10-28T13:36:04.667Z,25.77
2022-10-28T13:37:04.655Z,25.76
2022-10-28T13:38:04.640Z,25.94
2022-10-28T13:39:04.623Z,26.05
2022-10-28T13:40:04.640Z,25.94
2022-10-28T13:43:59.374Z,25.76
2022-10-28T13:44:59.326Z,25.77
2022-10-28T13:45:59.321Z,25.70
2022-10-28T13:46:59.335Z,25.79
2022-10-28T13:47:59.304Z,25.90
2022-10-28T13:49:01.286Z,26.05
2022-10-28T13:49:59.258Z,26.09
2022-10-28T13:50:59.272Z,26.06
2022-10-28T13:51:59.252Z,26.12
2022-10-28T13:52:59.298Z,26.09
